Date,TemperatureHighF,TemperatureAvgF,TemperatureLowF,DewpointHighF,DewpointAvgF,DewpointLowF,HumidityHigh,HumidityAvg,HumidityLow,PressureMaxIn,PressureMinIn,WindSpeedMaxMPH,WindSpeedAvgMPH,GustSpeedMaxMPH,PrecipitationSumIn
2013-5-1,74,69,62,72,67,61,98,96,86,29.94,29.85,6,1,12,2.51
2013-5-2,75,67,62,70,26,-100,99,69,74,29.98,29.88,3,0,9,3.12
2013-5-3,75,65,50,68,42,-100,99,79,74,29.96,29.81,2,0,13,1.27
2013-5-4,73,57,44,49,43,36,96,65,26,29.97,29.87,3,0,12,0.33
2013-5-5,70,59,48,57,46,40,98,67,38,30.00,29.85,6,1,16,0.00
2013-5-6,74,60,49,54,49,44,88,68,42,30.01,29.91,4,1,15,0.00
2013-5-7,80,65,52,60,56,51,99,76,46,30.03,29.95,3,0,12,0.00
2013-5-8,83,69,56,65,37,-100,99,67,46,30.11,30.00,2,0,9,0.00
2013-5-9,83,70,58,69,40,-100,99,68,45,30.14,30.05,3,0,10,0.00
2013-5-10,78,68,63,69,63,-100,98,89,62,30.14,29.90,5,1,15,0.31
2013-5-11,77,68,61,68,46,-100,99,82,73,30.05,29.95,1,0,4,0.23
2013-5-12,83,70,60,65,60,54,99,72,45,30.12,30.00,3,0,10,0.02
2013-5-13,80,66,49,54,47,40,90,58,26,30.28,30.12,4,0,10,0.00
2013-5-14,83,68,53,60,55,52,98,69,36,30.28,30.15,2,0,9,0.00
2013-5-15,86,70,58,65,57,47,99,68,31,30.21,30.03,3,0,7,0.00
2013-5-16,82,68,65,71,47,-100,96,81,65,30.05,29.97,3,0,13,0.00
2013-5-17,82,75,69,73,66,-100,96,85,70,30.05,29.98,2,0,11,0.00
2013-5-18,86,77,71,74,72,70,98,84,65,30.08,30.00,2,0,9,0.00
2013-5-19,83,78,69,74,72,68,98,82,70,30.04,29.98,2,0,7,0.00
2013-5-20,89,78,70,76,71,68,99,82,54,30.04,29.96,3,0,10,0.00
2013-5-21,86,77,68,75,51,-100,99,73,61,29.99,29.88,3,0,13,0.00
2013-5-22,85,76,67,69,38,-100,99,64,50,30.02,29.89,4,0,16,0.00
2013-5-23,92,79,67,73,56,-100,98,67,41,30.04,29.94,2,0,7,0.00
2013-5-24,91,80,67,72,66,56,97,66,40,30.16,30.01,4,0,9,0.00
2013-5-25,89,72,58,63,56,50,88,60,27,30.23,30.14,2,0,7,0.00
2013-5-26,88,75,61,71,63,53,98,71,35,30.20,30.12,5,0,10,0.00
2013-5-27,85,76,66,73,67,61,98,75,45,30.16,30.06,3,0,14,0.00
2013-5-28,87,75,62,72,65,-100,99,79,51,30.09,30.03,4,1,16,0.00
2013-5-29,87,79,71,75,72,69,97,80,60,30.05,30.00,4,1,14,0.00
2013-5-30,87,80,74,73,72,70,93,77,59,30.06,29.98,4,1,17,0.00
2013-5-31,87,80,76,75,73,70,88,79,63,30.04,29.97,3,1,13,0.00